Time;durP1;ratioP1;P1;durP2;ratioP2;P2;SDS_P1;SDS_P2;PMS_P1;PMS_P2;Temp;Humidity;BMP_temperature;BMP_pressure;BME280_temperature;BME280_humidity;BME280_pressure;Samples;Min_cycle;Max_cycle;Signal;HPM_P1;HPM_P2
2021/06/12 00:01:37;;;;;;;7.47;6.33;;;17.20;82.90;;;;;;5104061;28;20501;-68
2021/06/12 00:04:04;;;;;;;8.00;6.80;;;17.20;83.00;;;;;;5102548;27;20526;-68
2021/06/12 00:06:32;;;;;;;7.80;6.00;;;17.20;83.30;;;;;;5102178;28;20526;-68
2021/06/12 00:08:58;;;;;;;9.03;6.33;;;17.10;83.50;;;;;;5113535;27;20538;-68
2021/06/12 00:11:25;;;;;;;11.27;8.70;;;17.00;83.80;;;;;;5110795;28;20463;-69
2021/06/12 00:13:51;;;;;;;15.53;12.00;;;17.00;84.20;;;;;;5096513;27;20467;-68
2021/06/12 00:16:18;;;;;;;9.10;8.10;;;17.00;84.20;;;;;;5110090;28;20458;-68
2021/06/12 00:18:45;;;;;;;7.37;6.60;;;17.00;84.30;;;;;;5123848;27;20433;-68
2021/06/12 00:21:12;;;;;;;5.80;5.20;;;17.00;84.10;;;;;;5132434;27;20461;-68
2021/06/12 00:23:39;;;;;;;9.80;6.50;;;17.00;83.90;;;;;;5116401;28;20438;-68
2021/06/12 00:26:07;;;;;;;9.53;5.80;;;16.90;83.80;;;;;;5116472;28;20525;-68
2021/06/12 00:28:37;;;;;;;7.00;6.30;;;16.90;83.90;;;;;;5116294;28;20430;-68
2021/06/12 00:31:07;;;;;;;7.33;5.80;;;16.80;83.80;;;;;;5116483;28;20452;-68
2021/06/12 00:33:39;;;;;;;6.70;5.87;;;16.80;84.60;;;;;;5120651;27;20437;-68
2021/06/12 00:36:05;;;;;;;6.40;5.50;;;16.80;84.60;;;;;;5136938;27;20469;-67
2021/06/12 08:34:55;;;;;;;7.60;6.90;;;26.30;57.20;;;;;;5075988;28;20409;-71
2021/06/12 08:37:26;;;;;;;6.60;6.00;;;26.50;56.20;;;;;;5075503;28;20482;-69
2021/06/12 08:39:56;;;;;;;6.20;4.60;;;26.70;55.30;;;;;;5075709;28;20530;-69
2021/06/12 08:42:22;;;;;;;5.80;4.97;;;26.80;56.10;;;;;;5075016;28;20478;-69
2021/06/12 08:44:49;;;;;;;7.60;4.67;;;26.90;53.40;;;;;;5075526;28;20904;-69
2021/06/12 08:47:15;;;;;;;5.00;4.50;;;27.00;51.60;;;;;;5074876;28;20507;-69
2021/06/12 08:49:42;;;;;;;6.27;5.67;;;27.10;51.10;;;;;;5072567;28;20440;-69
2021/06/12 08:52:09;;;;;;;16.63;6.37;;;27.10;50.40;;;;;;5080262;28;20448;-69
2021/06/12 08:54:40;;;;;;;6.83;4.93;;;27.20;50.50;;;;;;5073998;28;20468;-70
2021/06/12 08:57:07;;;;;;;7.30;4.40;;;27.30;50.80;;;;;;5074150;28;20546;-69
2021/06/12 08:59:35;;;;;;;5.70;4.70;;;27.60;51.70;;;;;;5073681;28;20436;-71
2021/06/12 09:02:02;;;;;;;8.07;5.90;;;27.90;50.00;;;;;;5073966;28;20435;-69
2021/06/12 09:04:31;;;;;;;4.77;4.37;;;28.10;49.90;;;;;;5085985;28;20493;-69
2021/06/12 09:07:18;;;;;;;5.00;4.43;;;28.30;48.60;;;;;;5071459;28;20477;-70
2021/06/12 09:09:45;;;;;;;5.30;4.37;;;28.50;48.10;;;;;;5071175;28;20432;-70
2021/06/12 09:12:12;;;;;;;5.33;4.83;;;28.60;47.90;;;;;;5073550;28;20833;-69
2021/06/12 09:14:38;;;;;;;6.77;5.13;;;28.70;47.20;;;;;;5074671;28;20536;-69
2021/06/12 09:17:05;;;;;;;7.30;4.90;;;28.80;45.40;;;;;;5074166;28;21013;-69
2021/06/12 09:19:39;;;;;;;6.73;5.40;;;28.80;45.40;;;;;;5073764;28;20469;-71
2021/06/12 09:22:07;;;;;;;5.30;4.90;;;28.90;44.40;;;;;;5069721;28;20446;-69
2021/06/12 09:24:39;;;;;;;5.47;4.97;;;28.90;44.00;;;;;;5071335;28;20448;-69
2021/06/12 09:27:11;;;;;;;4.90;4.47;;;29.00;43.50;;;;;;5077796;28;20487;-69
2021/06/12 09:29:39;;;;;;;4.83;4.03;;;29.00;43.10;;;;;;5089401;28;20492;-70
2021/06/12 09:32:14;;;;;;;5.03;4.50;;;29.10;43.20;;;;;;5092177;28;20443;-69
2021/06/12 09:34:41;;;;;;;6.83;3.67;;;29.20;42.40;;;;;;5092206;28;20902;-69
2021/06/12 09:37:13;;;;;;;5.10;4.60;;;29.40;42.40;;;;;;5088957;28;20479;-69
2021/06/12 09:39:42;;;;;;;5.43;4.87;;;29.40;42.90;;;;;;5090333;28;20555;-69
2021/06/12 09:42:08;;;;;;;4.90;4.40;;;29.30;42.30;;;;;;5088543;28;20441;-69
2021/06/12 09:44:37;;;;;;;7.23;3.90;;;29.20;42.40;;;;;;5091744;28;20515;-69
2021/06/12 09:47:04;;;;;;;5.10;4.60;;;29.20;42.50;;;;;;5091405;28;20476;-69
2021/06/12 09:49:36;;;;;;;5.83;5.20;;;29.20;43.30;;;;;;5091175;28;20428;-69
2021/06/12 09:52:06;;;;;;;4.90;4.40;;;29.40;43.60;;;;;;5083345;28;20883;-70
2021/06/12 09:54:44;;;;;;;6.20;4.80;;;29.40;43.90;;;;;;5089600;28;21027;-69
2021/06/12 09:57:12;;;;;;;5.70;5.20;;;29.50;43.20;;;;;;5089683;28;20464;-70
2021/06/12 09:59:49;;;;;;;7.47;4.57;;;29.50;42.20;;;;;;5085821;28;20884;-69
2021/06/12 10:02:36;;;;;;;5.37;4.47;;;29.50;42.00;;;;;;5084773;28;20451;-68
2021/06/12 10:05:04;;;;;;;6.00;5.40;;;29.70;43.20;;;;;;5090374;28;20931;-69
2021/06/12 10:07:31;;;;;;;4.60;4.17;;;29.80;42.50;;;;;;5086407;28;20447;-74
2021/06/12 10:10:03;;;;;;;7.50;5.37;;;29.70;41.60;;;;;;5090393;28;20443;-69
2021/06/12 10:12:30;;;;;;;4.97;4.00;;;29.50;42.10;;;;;;5091854;28;20431;-73
2021/06/12 10:14:58;;;;;;;4.50;4.10;;;29.20;40.30;;;;;;5088701;28;20499;-69
2021/06/12 10:17:26;;;;;;;7.43;4.53;;;29.00;40.80;;;;;;5090520;28;20880;-69
2021/06/12 10:19:54;;;;;;;5.80;4.43;;;28.80;40.60;;;;;;5091496;28;20438;-69
2021/06/12 10:22:22;;;;;;;5.93;4.03;;;28.60;40.90;;;;;;5092116;28;20440;-69
2021/06/12 10:24:49;;;;;;;5.20;4.00;;;28.60;41.90;;;;;;5092471;28;20475;-69
2021/06/12 10:27:18;;;;;;;6.17;4.20;;;28.70;43.20;;;;;;5092060;28;21075;-68
2021/06/12 10:29:46;;;;;;;5.37;3.60;;;28.70;42.40;;;;;;5092375;28;20523;-70
2021/06/12 10:32:14;;;;;;;6.00;4.60;;;28.90;42.00;;;;;;5087524;28;20514;-69
2021/06/12 10:34:41;;;;;;;5.37;4.10;;;28.90;42.40;;;;;;5091514;28;20483;-68
2021/06/12 10:37:09;;;;;;;4.20;3.80;;;29.20;43.30;;;;;;5091780;28;20484;-69
2021/06/12 10:39:37;;;;;;;4.30;3.73;;;29.40;44.20;;;;;;5090897;28;20506;-70
2021/06/12 10:42:12;;;;;;;4.53;3.67;;;29.50;41.70;;;;;;5087141;28;20533;-69
2021/06/12 10:44:41;;;;;;;5.90;3.83;;;29.60;40.70;;;;;;5088308;28;20836;-69
2021/06/12 10:47:08;;;;;;;7.17;4.70;;;29.60;40.40;;;;;;5090256;28;21127;-69
2021/06/12 10:49:35;;;;;;;5.33;3.67;;;29.70;41.50;;;;;;5091956;28;20463;-69
2021/06/12 10:52:02;;;;;;;3.90;3.50;;;29.80;40.70;;;;;;5092161;28;20460;-69
2021/06/12 10:54:35;;;;;;;5.00;4.03;;;29.90;40.60;;;;;;5091208;28;20453;-69
2021/06/12 10:57:03;;;;;;;4.30;3.90;;;30.10;40.60;;;;;;5087629;28;20438;-68
2021/06/12 10:59:49;;;;;;;3.87;3.57;;;30.20;40.30;;;;;;5091984;28;20537;-68
2021/06/12 11:02:26;;;;;;;4.77;4.27;;;30.20;38.40;;;;;;5087585;28;20935;-69
2021/06/12 11:04:56;;;;;;;4.30;3.23;;;30.00;38.60;;;;;;5090937;28;20533;-69
2021/06/12 11:07:28;;;;;;;4.33;3.93;;;29.90;39.00;;;;;;5089331;28;20844;-68
2021/06/12 11:10:15;;;;;;;4.87;3.67;;;29.80;38.70;;;;;;5087717;28;20480;-69
2021/06/12 11:12:46;;;;;;;8.30;3.77;;;29.60;38.10;;;;;;5088537;28;20441;-69
2021/06/12 11:15:24;;;;;;;4.80;4.20;;;29.50;37.70;;;;;;5092683;28;20530;-69
2021/06/12 11:18:13;;;;;;;4.83;4.43;;;29.40;38.50;;;;;;5092738;28;20933;-69
2021/06/12 11:20:43;;;;;;;6.43;4.80;;;29.40;40.00;;;;;;5091859;28;20462;-69
2021/06/12 11:23:14;;;;;;;3.97;3.57;;;29.60;40.70;;;;;;5092748;28;20441;-69
2021/06/12 11:25:59;;;;;;;5.13;4.00;;;29.70;39.50;;;;;;5092371;28;20995;-69
2021/06/12 11:28:31;;;;;;;5.90;3.83;;;29.80;39.80;;;;;;5092572;28;20824;-69
2021/06/12 11:31:30;;;;;;;3.90;3.50;;;29.90;39.60;;;;;;5083619;28;20442;-72
2021/06/12 11:34:16;;;;;;;6.00;3.80;;;30.00;39.10;;;;;;5092331;28;20495;-72
2021/06/12 11:36:45;;;;;;;7.43;3.67;;;30.20;39.90;;;;;;5072484;28;20465;-69
2021/06/12 11:39:17;;;;;;;4.03;3.60;;;30.10;38.30;;;;;;5076342;28;20441;-69
2021/06/12 11:41:44;;;;;;;5.60;4.57;;;30.10;38.00;;;;;;5091636;28;20435;-69
2021/06/12 11:44:15;;;;;;;5.10;3.60;;;30.00;38.20;;;;;;5091966;28;20433;-69
2021/06/12 11:46:44;;;;;;;5.10;3.83;;;30.10;38.80;;;;;;5092921;28;20524;-68
2021/06/12 11:49:13;;;;;;;4.70;3.43;;;30.10;37.60;;;;;;5091612;28;20439;-69
2021/06/12 11:51:45;;;;;;;3.70;3.27;;;30.10;37.60;;;;;;5095588;28;20442;-69
2021/06/12 11:54:14;;;;;;;9.60;3.67;;;30.10;38.30;;;;;;5093158;28;20443;-69
2021/06/12 11:56:43;;;;;;;4.83;3.90;;;30.00;36.20;;;;;;5094129;28;20522;-69
2021/06/12 11:59:11;;;;;;;5.40;3.60;;;30.00;36.10;;;;;;5091849;28;20491;-70
2021/06/12 12:01:45;;;;;;;4.77;3.43;;;30.20;37.10;;;;;;5095173;28;20443;-70
2021/06/12 12:04:14;;;;;;;4.47;3.87;;;30.30;37.00;;;;;;5095187;28;20476;-68
2021/06/12 12:06:46;;;;;;;5.60;4.93;;;30.40;38.00;;;;;;5095126;28;20805;-68
2021/06/12 12:09:25;;;;;;;4.30;3.90;;;30.50;37.90;;;;;;5090774;28;20437;-68
2021/06/12 12:11:53;;;;;;;6.20;4.47;;;30.50;37.30;;;;;;5092482;28;20831;-69
2021/06/12 12:14:30;;;;;;;5.30;3.43;;;30.60;37.30;;;;;;5094048;28;20441;-69
2021/06/12 12:16:59;;;;;;;5.53;3.10;;;30.70;37.30;;;;;;5094587;28;20434;-69
2021/06/12 12:19:25;;;;;;;4.37;3.97;;;30.80;38.10;;;;;;5094048;28;20522;-68
2021/06/12 12:21:57;;;;;;;3.80;3.03;;;30.90;37.50;;;;;;5092852;28;20841;-68
2021/06/12 12:24:26;;;;;;;5.17;3.47;;;30.90;36.30;;;;;;5080039;28;20439;-70
2021/06/12 12:27:00;;;;;;;4.57;4.10;;;30.90;36.20;;;;;;5088259;28;20493;-69
2021/06/12 12:29:31;;;;;;;6.87;4.70;;;30.90;36.40;;;;;;5093007;28;20538;-68
2021/06/12 12:32:00;;;;;;;3.50;3.00;;;30.90;37.50;;;;;;5093467;28;20506;-68
2021/06/12 12:34:38;;;;;;;4.30;3.90;;;31.00;35.60;;;;;;5091989;28;20488;-68
2021/06/12 12:37:07;;;;;;;4.13;3.70;;;30.90;35.70;;;;;;5093888;28;20443;-68
2021/06/12 12:39:38;;;;;;;4.10;3.70;;;30.90;36.30;;;;;;5092482;28;20442;-69
2021/06/12 12:42:06;;;;;;;6.20;2.90;;;31.00;35.90;;;;;;5092222;28;20462;-68
2021/06/12 12:44:33;;;;;;;7.57;3.47;;;31.00;34.40;;;;;;5091826;28;20434;-68
2021/06/12 12:47:01;;;;;;;4.60;4.20;;;31.00;33.90;;;;;;5092483;28;20441;-68
2021/06/12 12:49:29;;;;;;;3.93;3.53;;;31.10;34.60;;;;;;5091477;28;20496;-70
2021/06/12 12:51:59;;;;;;;5.57;3.97;;;31.00;33.20;;;;;;5092053;28;20917;-68
2021/06/12 12:54:27;;;;;;;5.03;3.17;;;31.00;33.50;;;;;;5091960;28;20473;-68
2021/06/12 12:56:56;;;;;;;4.20;3.80;;;30.90;33.80;;;;;;5089965;28;20480;-68
2021/06/12 12:59:34;;;;;;;6.67;4.90;;;30.80;31.90;;;;;;5089004;28;20453;-69
2021/06/12 13:02:06;;;;;;;6.10;3.30;;;30.70;31.40;;;;;;5093264;28;20435;-68
2021/06/12 13:04:35;;;;;;;5.63;3.70;;;30.60;32.00;;;;;;5094650;28;20445;-68
2021/06/12 13:07:06;;;;;;;5.67;3.83;;;30.60;32.80;;;;;;5093845;28;20442;-68
2021/06/12 13:09:33;;;;;;;5.40;3.70;;;30.50;32.40;;;;;;5087863;28;20848;-68
2021/06/12 13:12:05;;;;;;;7.53;3.77;;;30.50;32.60;;;;;;5085365;28;20814;-68
2021/06/12 13:14:33;;;;;;;4.20;3.80;;;30.50;32.40;;;;;;5092112;28;20443;-68
2021/06/12 13:17:04;;;;;;;4.60;4.20;;;30.50;34.00;;;;;;5090361;28;20504;-69
2021/06/12 13:19:35;;;;;;;6.40;4.33;;;30.40;33.60;;;;;;5093577;28;20955;-68
2021/06/12 13:22:03;;;;;;;3.67;3.37;;;30.40;33.00;;;;;;5092217;28;20431;-68
2021/06/12 13:24:30;;;;;;;3.90;3.50;;;30.30;33.30;;;;;;5091702;28;20446;-68
2021/06/12 13:26:56;;;;;;;4.00;3.33;;;30.30;33.40;;;;;;5088265;28;20461;-68
2021/06/12 13:29:27;;;;;;;8.40;3.80;;;30.20;33.20;;;;;;5094001;28;20940;-68
2021/06/12 13:31:54;;;;;;;4.63;4.23;;;30.20;33.60;;;;;;5092263;28;20438;-68
2021/06/12 13:34:30;;;;;;;6.83;3.60;;;30.10;34.20;;;;;;5092503;28;20442;-68
2021/06/12 13:36:59;;;;;;;4.60;4.20;;;30.10;32.70;;;;;;5091751;28;20481;-70
2021/06/12 13:39:31;;;;;;;6.00;4.50;;;30.00;31.80;;;;;;5086919;28;20435;-69
2021/06/12 13:42:12;;;;;;;6.67;5.73;;;30.00;32.90;;;;;;5073844;28;20447;-70
2021/06/12 13:44:39;;;;;;;7.13;6.03;;;30.00;33.40;;;;;;5088392;28;20445;-68
2021/06/12 13:47:06;;;;;;;7.63;5.90;;;30.00;32.70;;;;;;5090965;28;20439;-68
2021/06/12 13:49:34;;;;;;;4.23;3.83;;;30.00;33.30;;;;;;5091346;28;20441;-68
2021/06/12 13:52:00;;;;;;;5.17;4.20;;;30.10;32.80;;;;;;5086734;28;20790;-73
2021/06/12 13:54:27;;;;;;;7.13;4.40;;;30.10;32.90;;;;;;5090104;28;20430;-70
2021/06/12 13:56:54;;;;;;;4.90;4.40;;;30.20;34.30;;;;;;5087466;28;20483;-68
2021/06/12 13:59:21;;;;;;;5.13;4.63;;;30.30;33.60;;;;;;5086715;28;20442;-70
2021/06/12 14:01:49;;;;;;;6.07;4.07;;;30.40;33.10;;;;;;5090293;28;20439;-70
2021/06/12 14:04:16;;;;;;;5.90;4.30;;;30.40;33.00;;;;;;5089727;28;20527;-68
2021/06/12 14:06:44;;;;;;;6.37;5.60;;;30.50;33.20;;;;;;5090787;28;20458;-68
2021/06/12 14:09:11;;;;;;;6.43;5.83;;;30.40;33.00;;;;;;5090164;28;20932;-70
2021/06/12 14:11:37;;;;;;;5.37;4.87;;;30.30;33.20;;;;;;5089823;28;20541;-69
2021/06/12 14:14:08;;;;;;;6.80;5.70;;;30.10;32.20;;;;;;5087990;28;20484;-69
2021/06/12 14:16:35;;;;;;;5.20;4.70;;;29.80;32.80;;;;;;5085475;28;20520;-68
2021/06/12 14:19:07;;;;;;;5.50;5.00;;;29.50;32.80;;;;;;5084720;28;20429;-68
2021/06/12 14:21:33;;;;;;;8.40;5.23;;;29.30;33.00;;;;;;5085435;28;20913;-69
2021/06/12 14:24:03;;;;;;;7.17;6.47;;;29.00;33.20;;;;;;5089524;28;20441;-70
2021/06/12 14:26:32;;;;;;;5.20;4.70;;;28.80;33.70;;;;;;5084635;28;20433;-68
2021/06/12 14:28:59;;;;;;;10.00;9.00;;;28.70;33.50;;;;;;5071808;28;20448;-70
2021/06/12 14:31:30;;;;;;;6.90;6.30;;;28.40;34.20;;;;;;5071544;28;20432;-68
2021/06/12 14:34:02;;;;;;;5.20;4.70;;;28.30;34.80;;;;;;5067545;28;20531;-68
2021/06/12 14:36:28;;;;;;;6.20;5.40;;;28.10;34.80;;;;;;5071583;28;20483;-71
2021/06/12 14:38:56;;;;;;;4.30;3.80;;;28.00;35.20;;;;;;5071792;28;20537;-70
2021/06/12 14:41:24;;;;;;;5.03;4.00;;;27.90;35.40;;;;;;5070872;28;20480;-69
2021/06/12 14:43:56;;;;;;;8.60;5.20;;;27.90;35.60;;;;;;5071471;28;20471;-69
2021/06/12 14:46:22;;;;;;;9.53;8.10;;;27.90;36.50;;;;;;5071597;28;20455;-69
2021/06/12 14:48:53;;;;;;;6.53;5.93;;;27.90;37.00;;;;;;5071065;28;20519;-71
2021/06/12 14:51:21;;;;;;;9.57;5.20;;;28.00;37.90;;;;;;5071372;28;20479;-68
2021/06/12 14:53:47;;;;;;;8.27;7.10;;;28.10;38.20;;;;;;5071510;28;20475;-70
2021/06/12 14:56:14;;;;;;;5.63;4.70;;;28.20;37.60;;;;;;5072666;28;20573;-68
2021/06/12 14:58:42;;;;;;;6.40;5.50;;;28.30;37.90;;;;;;5072761;28;20846;-70
2021/06/12 15:01:08;;;;;;;5.23;4.73;;;28.40;37.80;;;;;;5070299;28;20436;-68
2021/06/12 15:03:35;;;;;;;4.97;4.47;;;28.40;37.60;;;;;;5079420;28;20494;-70
2021/06/12 15:06:01;;;;;;;9.93;5.27;;;28.40;37.10;;;;;;5072164;28;20440;-71
2021/06/12 15:08:28;;;;;;;5.70;4.60;;;28.30;38.30;;;;;;5072076;28;20471;-70
2021/06/12 15:10:59;;;;;;;7.40;6.70;;;28.30;38.00;;;;;;5072391;28;20436;-70
2021/06/12 15:13:26;;;;;;;9.27;7.77;;;28.30;38.40;;;;;;5058824;28;20443;-70
2021/06/12 15:15:54;;;;;;;7.47;6.73;;;28.40;39.40;;;;;;5068320;28;20439;-71
2021/06/12 15:18:21;;;;;;;7.13;5.87;;;28.40;38.40;;;;;;5069391;28;20432;-71
2021/06/12 15:20:47;;;;;;;6.97;4.87;;;28.50;37.80;;;;;;5066991;28;20502;-71
2021/06/12 15:23:14;;;;;;;6.27;4.90;;;28.50;37.30;;;;;;5073571;28;20440;-69
2021/06/12 15:25:40;;;;;;;9.40;6.90;;;28.40;36.80;;;;;;5067332;28;20897;-69
2021/06/12 15:28:10;;;;;;;224.77;201.70;;;28.40;38.10;;;;;;5096445;28;20547;-71
2021/06/12 15:30:37;;;;;;;26.13;23.53;;;28.30;38.10;;;;;;5105967;28;20953;-70
2021/06/12 15:33:06;;;;;;;19.27;17.57;;;28.10;37.70;;;;;;5109557;28;20959;-69
2021/06/12 15:35:32;;;;;;;651.13;580.80;;;28.10;38.30;;;;;;5100211;28;20783;-69
2021/06/12 15:38:00;;;;;;;40.03;36.03;;;28.00;38.40;;;;;;5098347;28;20467;-70
2021/06/12 15:40:26;;;;;;;8.40;7.60;;;28.00;38.70;;;;;;5105449;28;20889;-70
2021/06/12 15:42:57;;;;;;;7.13;5.90;;;27.80;38.60;;;;;;5110346;28;20482;-69
2021/06/12 15:45:25;;;;;;;7.00;6.30;;;27.80;38.80;;;;;;5111784;28;20791;-70
2021/06/12 15:48:03;;;;;;;10.93;8.00;;;27.70;38.50;;;;;;5113364;28;20451;-70
2021/06/12 15:50:33;;;;;;;8.10;7.40;;;27.60;39.20;;;;;;5113022;28;20533;-69
2021/06/12 15:53:05;;;;;;;6.00;5.40;;;27.60;39.70;;;;;;5113643;28;20849;-70
2021/06/12 15:55:32;;;;;;;6.63;6.03;;;27.60;40.10;;;;;;5113172;28;20529;-70
2021/06/12 15:58:03;;;;;;;6.13;5.53;;;27.60;39.80;;;;;;5112563;28;20544;-70
2021/06/12 16:00:30;;;;;;;6.07;5.47;;;27.60;39.90;;;;;;5114314;28;20786;-70
2021/06/12 16:02:57;;;;;;;7.73;7.03;;;27.70;41.10;;;;;;5113999;28;20469;-73
2021/06/12 16:05:23;;;;;;;6.57;5.97;;;27.80;40.90;;;;;;5094960;28;20430;-70
2021/06/12 16:07:54;;;;;;;7.07;5.53;;;27.80;41.00;;;;;;5099160;28;20919;-69
2021/06/12 16:10:25;;;;;;;6.50;5.90;;;27.80;40.50;;;;;;5104997;28;20538;-71
2021/06/12 16:12:52;;;;;;;10.90;7.30;;;27.80;39.90;;;;;;5097134;28;20976;-68
2021/06/12 16:15:21;;;;;;;8.27;7.50;;;27.80;40.10;;;;;;5090875;28;20473;-70
2021/06/12 16:17:50;;;;;;;10.87;9.57;;;27.80;40.20;;;;;;5096901;28;20583;-68
2021/06/12 16:20:19;;;;;;;7.83;7.03;;;27.80;40.00;;;;;;5108941;28;20799;-70
2021/06/12 16:22:53;;;;;;;7.17;6.17;;;27.80;39.90;;;;;;5109551;28;20465;-70
2021/06/12 16:25:20;;;;;;;6.33;5.73;;;27.70;40.10;;;;;;5101105;28;20421;-70
2021/06/12 16:27:48;;;;;;;6.40;5.80;;;27.70;40.50;;;;;;5105657;28;20785;-70
2021/06/12 16:30:21;;;;;;;8.00;7.00;;;27.70;40.70;;;;;;5109836;28;20521;-71
2021/06/12 16:32:54;;;;;;;18.00;16.10;;;27.60;40.10;;;;;;5110256;28;20514;-70
2021/06/12 16:35:21;;;;;;;10.73;9.63;;;27.60;40.70;;;;;;5110044;28;20446;-71
2021/06/12 16:37:47;;;;;;;7.77;6.97;;;27.50;41.10;;;;;;5105377;28;20485;-73
2021/06/12 16:40:19;;;;;;;7.63;6.93;;;27.40;41.40;;;;;;5101855;27;20430;-70
2021/06/12 16:42:47;;;;;;;30.27;27.10;;;27.40;41.10;;;;;;5108484;27;20450;-70
2021/06/12 16:45:17;;;;;;;15.20;11.50;;;27.30;41.10;;;;;;5108166;27;20979;-69
2021/06/12 16:47:44;;;;;;;10.30;9.40;;;27.30;41.40;;;;;;5095082;28;20559;-70
2021/06/12 16:50:13;;;;;;;43.53;39.07;;;27.30;41.80;;;;;;5105346;28;20917;-70
2021/06/12 16:52:40;;;;;;;14.67;13.17;;;27.30;42.20;;;;;;5112676;28;20486;-69
2021/06/12 16:58:22;;;;;;;21.30;18.80;;;27.20;42.20;;;;;;5104842;28;20484;-70
2021/06/12 17:00:58;;;;;;;60.10;48.07;;;27.20;42.80;;;;;;5109896;28;20442;-69
2021/06/12 17:03:25;;;;;;;38.07;31.10;;;27.20;42.80;;;;;;5112153;27;20444;-69
2021/06/12 17:05:52;;;;;;;13.07;11.67;;;27.20;43.20;;;;;;5112239;27;20942;-71
2021/06/12 17:08:19;;;;;;;11.47;10.33;;;27.10;42.80;;;;;;5112172;28;20470;-69
2021/06/12 17:10:51;;;;;;;11.50;8.87;;;27.10;43.90;;;;;;5112521;27;20430;-69
2021/06/12 17:13:20;;;;;;;8.60;7.50;;;27.10;43.00;;;;;;5108372;27;20432;-69
2021/06/12 17:15:47;;;;;;;12.83;11.40;;;27.00;42.70;;;;;;5113142;27;20495;-69
2021/06/12 17:18:15;;;;;;;140.70;106.97;;;27.10;42.70;;;;;;5111427;27;20471;-69
2021/06/12 17:20:42;;;;;;;89.87;72.93;;;27.00;43.40;;;;;;5109637;27;20813;-70
2021/06/12 17:23:11;;;;;;;20.83;18.67;;;27.00;43.70;;;;;;5103565;28;20480;-74
2021/06/12 17:25:38;;;;;;;14.63;12.80;;;27.00;43.90;;;;;;5090462;28;20489;-69
2021/06/12 17:28:06;;;;;;;9.60;8.60;;;26.90;44.30;;;;;;5110506;28;20458;-70
2021/06/12 17:30:35;;;;;;;13.00;9.30;;;26.80;44.40;;;;;;5106228;28;20909;-70
2021/06/12 17:33:03;;;;;;;8.80;7.17;;;26.70;44.00;;;;;;5111470;28;20531;-70
2021/06/12 17:35:30;;;;;;;6.60;6.00;;;26.60;43.90;;;;;;5112169;28;20486;-72
2021/06/12 17:38:00;;;;;;;5.97;5.30;;;26.50;43.50;;;;;;5095785;27;20575;-69
2021/06/12 17:40:27;;;;;;;8.93;5.33;;;26.50;43.50;;;;;;5108073;28;20919;-71
2021/06/12 17:42:54;;;;;;;7.33;6.53;;;26.40;43.30;;;;;;5111718;28;20941;-69
2021/06/12 17:45:21;;;;;;;8.90;7.77;;;26.30;43.20;;;;;;5111473;28;20467;-69
2021/06/12 17:47:49;;;;;;;8.43;7.50;;;26.20;43.20;;;;;;5111682;27;20529;-71
2021/06/12 17:50:15;;;;;;;8.07;6.87;;;26.10;43.50;;;;;;5103395;28;20540;-70
2021/06/12 17:52:42;;;;;;;10.93;9.63;;;26.00;43.60;;;;;;5111663;27;20459;-69
2021/06/12 17:55:10;;;;;;;6.77;6.03;;;26.00;44.00;;;;;;5108700;27;20461;-70
2021/06/12 17:57:37;;;;;;;10.13;9.13;;;25.90;44.10;;;;;;5105418;28;20581;-70
2021/06/12 18:00:05;;;;;;;6.97;6.27;;;25.90;44.40;;;;;;5109853;28;20447;-70
2021/06/12 18:02:32;;;;;;;6.70;6.10;;;25.80;44.70;;;;;;5106828;28;20440;-70
2021/06/12 18:05:00;;;;;;;7.33;6.10;;;25.70;45.00;;;;;;5110141;28;20476;-70
2021/06/12 18:07:30;;;;;;;6.10;5.60;;;25.70;45.00;;;;;;5109555;28;20912;-70
2021/06/12 18:10:01;;;;;;;6.23;5.63;;;25.70;45.60;;;;;;5108190;27;20865;-70
2021/06/12 18:12:28;;;;;;;10.60;9.60;;;25.60;45.50;;;;;;5094356;28;20424;-70
2021/06/12 18:14:56;;;;;;;11.47;10.27;;;25.60;45.90;;;;;;5093597;28;20935;-70
2021/06/12 18:17:24;;;;;;;12.00;8.60;;;25.60;45.70;;;;;;5099848;27;20478;-70
2021/06/12 18:19:50;;;;;;;10.40;9.10;;;25.60;45.70;;;;;;5099461;27;20450;-69
2021/06/12 18:22:21;;;;;;;10.83;9.80;;;25.50;45.90;;;;;;5096457;28;21004;-69
2021/06/12 18:24:48;;;;;;;8.10;7.23;;;25.40;46.30;;;;;;5103612;28;20926;-69
2021/06/12 18:27:14;;;;;;;7.40;6.70;;;25.40;46.60;;;;;;5090181;27;20497;-69
2021/06/12 18:29:41;;;;;;;8.67;6.00;;;25.40;46.70;;;;;;5073768;28;20475;-69
2021/06/12 18:32:08;;;;;;;6.23;5.63;;;25.30;47.00;;;;;;5070009;28;20798;-70
2021/06/12 18:34:34;;;;;;;8.03;7.27;;;25.30;47.20;;;;;;5077645;28;20486;-72
2021/06/12 18:37:01;;;;;;;9.40;8.60;;;25.30;47.50;;;;;;5075378;28;20521;-69
2021/06/12 18:39:30;;;;;;;15.30;13.50;;;25.30;47.60;;;;;;5075325;28;20867;-69
2021/06/12 18:41:57;;;;;;;16.07;14.53;;;25.20;47.60;;;;;;5070968;28;20530;-69
2021/06/12 18:44:29;;;;;;;10.80;9.67;;;25.20;48.10;;;;;;5075788;28;20478;-71
2021/06/12 18:46:57;;;;;;;12.90;11.60;;;25.10;48.10;;;;;;5076837;28;20442;-69
2021/06/12 18:49:24;;;;;;;9.90;8.90;;;25.00;48.40;;;;;;5078553;28;20777;-70
2021/06/12 18:51:51;;;;;;;11.37;9.80;;;25.00;48.70;;;;;;5070839;28;20810;-69
2021/06/12 18:54:17;;;;;;;7.90;7.10;;;24.90;48.80;;;;;;5077724;28;20779;-69
2021/06/12 18:56:45;;;;;;;7.53;6.73;;;24.90;49.10;;;;;;5075768;28;20562;-72
2021/06/12 18:59:11;;;;;;;7.40;6.60;;;24.80;49.10;;;;;;5073116;28;20500;-69
2021/06/12 19:01:38;;;;;;;10.60;7.77;;;24.80;49.50;;;;;;5074485;28;20475;-70
2021/06/12 19:04:04;;;;;;;9.60;7.90;;;24.70;49.80;;;;;;5075751;28;20933;-69
2021/06/12 19:06:31;;;;;;;9.30;8.27;;;24.70;50.20;;;;;;5082828;28;20498;-69
2021/06/12 19:08:57;;;;;;;6.33;5.60;;;24.60;50.10;;;;;;5077175;28;20475;-69
2021/06/12 19:11:23;;;;;;;5.90;5.20;;;24.60;50.40;;;;;;5080885;28;20987;-70
2021/06/12 19:13:51;;;;;;;5.60;5.00;;;24.50;50.40;;;;;;5080389;28;20522;-69
2021/06/12 19:16:18;;;;;;;8.87;8.07;;;24.40;50.70;;;;;;5071236;28;20538;-69
2021/06/12 19:18:44;;;;;;;8.27;7.00;;;24.40;50.70;;;;;;5076118;28;20440;-70
2021/06/12 19:21:11;;;;;;;5.43;4.93;;;24.40;51.20;;;;;;5077645;28;20486;-69
2021/06/12 19:23:37;;;;;;;6.67;5.30;;;24.30;51.00;;;;;;5075497;28;20482;-69
2021/06/12 19:26:04;;;;;;;4.30;3.90;;;24.30;51.00;;;;;;5087750;28;20427;-69
2021/06/12 19:28:30;;;;;;;5.60;4.40;;;24.20;51.10;;;;;;5088106;28;20466;-69
2021/06/12 19:30:58;;;;;;;6.97;4.57;;;24.20;51.20;;;;;;5084222;28;20459;-70
2021/06/12 19:33:24;;;;;;;4.80;3.40;;;24.20;51.30;;;;;;5087282;28;20839;-70
2021/06/12 19:35:57;;;;;;;4.60;3.20;;;24.10;50.80;;;;;;5087801;28;20845;-70
2021/06/12 19:38:37;;;;;;;3.67;2.50;;;24.00;50.40;;;;;;5081260;28;20475;-69
2021/06/12 19:41:05;;;;;;;3.93;2.97;;;24.00;50.10;;;;;;5075861;28;20440;-70
2021/06/12 19:43:32;;;;;;;5.43;1.97;;;23.90;49.80;;;;;;5080484;28;20431;-69
2021/06/12 19:46:00;;;;;;;3.70;2.40;;;23.80;49.40;;;;;;5078544;28;20439;-70
2021/06/12 19:48:26;;;;;;;6.50;2.90;;;23.70;49.40;;;;;;5077686;28;20914;-70
2021/06/12 19:50:56;;;;;;;3.30;2.27;;;23.60;49.30;;;;;;5086946;28;20467;-70
2021/06/12 19:53:37;;;;;;;3.20;2.03;;;23.60;49.30;;;;;;5084977;28;20478;-70
2021/06/12 19:56:04;;;;;;;5.00;1.90;;;23.50;49.20;;;;;;5080937;28;20447;-69
2021/06/12 19:58:32;;;;;;;3.60;2.37;;;23.40;49.10;;;;;;5079041;28;20532;-69
2021/06/12 20:01:03;;;;;;;2.50;1.40;;;23.30;49.20;;;;;;5085564;28;20784;-70
2021/06/12 20:03:32;;;;;;;3.70;2.30;;;23.30;49.30;;;;;;5070528;28;20517;-69
2021/06/12 20:06:05;;;;;;;2.40;1.20;;;23.30;49.50;;;;;;5074664;28;20438;-70
2021/06/12 20:08:31;;;;;;;11.57;1.83;;;23.30;49.50;;;;;;5072916;28;20451;-69
2021/06/12 20:10:57;;;;;;;4.43;3.40;;;23.30;49.50;;;;;;5078969;28;20440;-71
2021/06/12 20:13:24;;;;;;;4.57;2.93;;;23.30;49.60;;;;;;5075069;28;20869;-69
2021/06/12 20:15:51;;;;;;;3.20;2.50;;;23.30;49.70;;;;;;5078569;28;20501;-69
2021/06/12 20:18:19;;;;;;;6.30;3.07;;;23.30;49.80;;;;;;5083665;28;20483;-69
2021/06/12 20:20:46;;;;;;;4.90;2.57;;;23.20;49.80;;;;;;5076628;28;20444;-69
2021/06/12 20:23:13;;;;;;;2.23;1.40;;;23.20;49.80;;;;;;5079868;28;20450;-69
2021/06/12 20:25:40;;;;;;;2.17;1.23;;;23.10;49.60;;;;;;5074841;28;20459;-70
2021/06/12 20:28:06;;;;;;;2.60;1.80;;;23.10;49.50;;;;;;5077553;28;20574;-70
2021/06/12 20:30:33;;;;;;;2.90;1.37;;;23.10;49.40;;;;;;5082732;28;20439;-69
2021/06/12 20:33:00;;;;;;;2.00;1.17;;;23.10;49.30;;;;;;5079710;28;20570;-69
2021/06/12 20:35:28;;;;;;;3.60;3.00;;;23.10;49.30;;;;;;5077062;28;20440;-70
2021/06/12 20:37:54;;;;;;;3.20;2.30;;;23.00;49.50;;;;;;5084441;28;20483;-69
2021/06/12 20:40:21;;;;;;;2.57;1.30;;;23.00;49.40;;;;;;5077899;28;20523;-69
2021/06/12 20:42:48;;;;;;;3.33;1.20;;;23.00;49.40;;;;;;5077945;28;20489;-69
2021/06/12 20:45:15;;;;;;;2.00;1.10;;;22.90;49.40;;;;;;5075947;28;20444;-69
2021/06/12 20:47:44;;;;;;;1.83;1.00;;;22.90;49.50;;;;;;5080134;28;20925;-69
2021/06/12 20:50:12;;;;;;;1.97;1.17;;;22.90;49.50;;;;;;5076612;28;20432;-70
2021/06/12 20:52:40;;;;;;;2.40;1.20;;;22.90;49.70;;;;;;5077478;28;20798;-69
2021/06/12 20:55:08;;;;;;;3.40;2.77;;;22.90;49.80;;;;;;5076248;28;20475;-70